Time;durP1;ratioP1;P1;durP2;ratioP2;P2;SDS_P1;SDS_P2;PMS_P1;PMS_P2;Temp;Humidity;BMP_temperature;BMP_pressure;BME280_temperature;BME280_humidity;BME280_pressure;Samples;Min_cycle;Max_cycle;Signal;HPM_P1;HPM_P2
2023/06/13 00:02:07;;;;;;;7.28;5.65;;;;;;;20.83;60.24;100314.78;8323779;28;20041;-64
2023/06/13 00:06:08;;;;;;;9.57;5.90;;;;;;;20.61;60.25;100314.13;8323018;28;20057;-65
2023/06/13 00:10:09;;;;;;;6.88;4.88;;;;;;;20.61;59.99;100316.03;8320772;28;20048;-64
2023/06/13 00:14:11;;;;;;;10.95;5.25;;;;;;;20.66;59.52;100321.75;8323426;28;20507;-66
2023/06/13 00:18:11;;;;;;;8.52;5.65;;;;;;;20.65;59.65;100318.13;8322872;28;20045;-64
2023/06/13 00:22:14;;;;;;;6.85;5.40;;;;;;;20.71;58.81;100321.97;8322925;28;20316;-65
2023/06/13 00:26:14;;;;;;;6.38;5.78;;;;;;;20.82;58.23;100315.81;8322700;28;20540;-65
2023/06/13 00:30:18;;;;;;;6.50;4.82;;;;;;;20.91;57.58;100311.81;8319296;28;20049;-64
2023/06/13 00:34:19;;;;;;;10.80;5.18;;;;;;;20.98;57.21;100308.03;8321545;28;20061;-64
2023/06/13 00:38:21;;;;;;;4.82;4.35;;;;;;;20.91;57.08;100298.06;8322175;28;20069;-64
2023/06/13 00:42:21;;;;;;;6.72;4.85;;;;;;;20.85;57.11;100302.50;8321656;28;20056;-65
2023/06/13 00:46:29;;;;;;;7.75;3.90;;;;;;;20.74;56.83;100288.56;8320644;28;20041;-64
2023/06/13 00:50:33;;;;;;;8.90;4.38;;;;;;;20.74;56.67;100280.34;8320850;28;20041;-65
2023/06/13 00:54:36;;;;;;;6.65;4.53;;;;;;;20.80;56.35;100284.97;8321320;28;20122;-64
2023/06/13 00:58:37;;;;;;;6.75;4.47;;;;;;;20.73;56.24;100281.38;8321559;28;20048;-65
2023/06/13 01:02:40;;;;;;;5.47;4.07;;;;;;;20.54;56.49;100282.22;8321789;28;20038;-58
2023/06/13 01:06:44;;;;;;;12.25;4.28;;;;;;;20.43;56.91;100283.69;8320180;28;20501;-58
2023/06/13 01:10:52;;;;;;;10.18;4.82;;;;;;;20.36;57.10;100281.97;8320104;28;20408;-60
2023/06/13 01:15:07;;;;;;;6.68;4.22;;;;;;;20.23;57.64;100279.22;8321061;28;20496;-58
2023/06/13 01:19:23;;;;;;;6.90;4.22;;;;;;;20.05;58.36;100273.44;8319779;28;20033;-58
2023/06/13 01:23:36;;;;;;;8.80;4.45;;;;;;;19.91;58.59;100279.97;8318925;28;20811;-58
2023/06/13 01:27:39;;;;;;;6.90;4.40;;;;;;;19.86;58.30;100276.97;8320507;28;20039;-58
2023/06/13 01:31:43;;;;;;;7.30;4.47;;;;;;;19.83;60.46;100274.66;8319760;28;20054;-62
2023/06/13 01:35:45;;;;;;;8.10;4.45;;;;;;;19.64;60.86;100267.19;8320946;28;20499;-57
2023/06/13 01:39:46;;;;;;;7.20;4.80;;;;;;;19.28;62.29;100262.78;8317656;28;20041;-58
2023/06/13 01:43:46;;;;;;;12.45;5.43;;;;;;;19.33;63.12;100268.53;8319202;28;20041;-58
2023/06/13 01:48:11;;;;;;;7.30;4.95;;;;;;;18.82;66.72;100256.16;8319582;28;20199;-58
2023/06/13 01:52:41;;;;;;;6.88;4.75;;;;;;;18.64;67.77;100269.53;8319302;28;20492;-58
2023/06/13 01:56:43;;;;;;;8.20;5.38;;;;;;;18.63;66.86;100267.81;8318541;28;20046;-58
2023/06/13 02:00:45;;;;;;;10.23;5.63;;;;;;;18.39;69.51;100270.97;8319682;28;20044;-58
2023/06/13 02:04:48;;;;;;;11.35;6.20;;;;;;;18.41;68.87;100268.88;8320390;28;20618;-63
2023/06/13 02:08:49;;;;;;;7.82;5.00;;;;;;;18.45;69.96;100264.69;8317821;28;20048;-63
2023/06/13 02:12:49;;;;;;;7.28;5.15;;;;;;;18.28;71.45;100266.00;8320416;28;20045;-65
2023/06/13 02:16:51;;;;;;;7.05;6.00;;;;;;;17.86;72.86;100271.44;8320424;28;20042;-63
2023/06/13 02:20:51;;;;;;;7.60;5.97;;;;;;;17.31;75.79;100260.22;8322668;28;20041;-59
2023/06/13 02:24:52;;;;;;;10.27;6.80;;;;;;;17.20;75.71;100263.44;8324005;28;20042;-57
2023/06/13 02:28:52;;;;;;;14.02;6.05;;;;;;;17.31;75.82;100254.75;8311535;28;20042;-58
2023/06/13 02:32:53;;;;;;;10.57;6.68;;;;;;;17.32;75.90;100264.63;8312162;28;20187;-63
2023/06/13 02:36:53;;;;;;;11.88;6.53;;;;;;;17.35;76.30;100264.25;8308791;28;20088;-63
2023/06/13 02:40:54;;;;;;;9.43;6.70;;;;;;;17.29;75.25;100265.00;8308925;28;20033;-65
2023/06/13 02:44:54;;;;;;;7.90;6.05;;;;;;;17.41;77.04;100268.94;8310727;28;20045;-63
2023/06/13 02:48:56;;;;;;;8.00;6.50;;;;;;;17.13;77.39;100262.47;8310603;28;20046;-63
2023/06/13 02:52:56;;;;;;;9.27;6.38;;;;;;;17.17;77.06;100267.38;8309727;28;20049;-64
2023/06/13 02:56:57;;;;;;;10.27;6.65;;;;;;;17.10;78.32;100265.59;8310474;28;20042;-64
2023/06/13 03:00:57;;;;;;;9.95;6.68;;;;;;;16.93;78.39;100266.81;8312616;28;20103;-64
2023/06/13 03:04:58;;;;;;;9.52;6.70;;;;;;;17.05;77.79;100268.06;8310388;28;20148;-65
2023/06/13 03:08:59;;;;;;;13.15;6.47;;;;;;;17.05;77.64;100259.84;8310041;28;20077;-64
2023/06/13 03:13:03;;;;;;;15.55;7.55;;;;;;;16.39;81.66;100265.25;8310682;28;20041;-58
2023/06/13 03:17:06;;;;;;;10.18;6.93;;;;;;;15.87;84.17;100267.03;8312393;28;21118;-58
2023/06/13 03:21:07;;;;;;;9.73;7.40;;;;;;;15.94;83.77;100262.53;8309082;28;20037;-58
2023/06/13 03:25:08;;;;;;;12.40;6.93;;;;;;;15.81;85.76;100271.34;8308656;28;20042;-58
2023/06/13 03:29:15;;;;;;;9.23;6.32;;;;;;;15.90;84.67;100275.72;8310635;28;20041;-59
2023/06/13 03:33:17;;;;;;;10.23;6.20;;;;;;;15.94;84.60;100270.72;8308854;28;20045;-58
2023/06/13 03:37:20;;;;;;;10.50;7.45;;;;;;;15.83;83.75;100279.34;8310151;28;20046;-58
2023/06/13 03:41:20;;;;;;;12.60;6.45;;;;;;;15.77;83.59;100281.75;8307037;28;20042;-57
2023/06/13 03:45:24;;;;;;;10.73;6.20;;;;;;;16.11;81.52;100278.63;8311212;28;20043;-58
2023/06/13 03:49:25;;;;;;;16.42;6.72;;;;;;;16.24;80.63;100278.88;8307950;28;20037;-58
2023/06/13 03:53:25;;;;;;;13.82;6.03;;;;;;;16.30;79.15;100277.28;8308551;28;20407;-58
2023/06/13 03:57:26;;;;;;;8.65;6.18;;;;;;;16.68;77.24;100276.31;8309294;28;20084;-57
2023/06/13 04:01:28;;;;;;;11.68;6.50;;;;;;;16.87;76.43;100275.75;8309339;28;20479;-57
2023/06/13 04:05:28;;;;;;;10.07;5.97;;;;;;;17.21;75.09;100274.19;8280202;28;20069;-58
2023/06/13 04:09:29;;;;;;;11.10;5.55;;;;;;;17.53;73.54;100272.94;8297147;28;20041;-57
2023/06/13 04:13:29;;;;;;;9.80;5.88;;;;;;;17.71;72.39;100284.31;8311000;28;20499;-58
2023/06/13 04:17:32;;;;;;;11.20;5.80;;;;;;;18.02;70.71;100298.56;8305135;28;20467;-58
2023/06/13 04:21:32;;;;;;;7.43;5.03;;;;;;;18.36;70.19;100295.97;8278793;28;20046;-57
2023/06/13 04:25:33;;;;;;;11.98;5.32;;;;;;;18.62;69.03;100304.47;8303011;28;20052;-58
2023/06/13 04:29:34;;;;;;;9.77;5.35;;;;;;;18.91;68.21;100298.78;8303776;28;20048;-58
2023/06/13 04:33:37;;;;;;;10.43;5.60;;;;;;;19.11;67.07;100302.53;8305130;28;20577;-57
2023/06/13 04:37:40;;;;;;;7.55;5.60;;;;;;;19.19;70.14;100305.09;8306029;28;20492;-58
2023/06/13 04:41:43;;;;;;;7.10;5.07;;;;;;;19.23;67.74;100303.66;8303626;28;20519;-58
2023/06/13 04:45:44;;;;;;;7.20;5.10;;;;;;;19.37;66.83;100305.44;8306260;28;20089;-58
2023/06/13 04:49:45;;;;;;;7.88;5.28;;;;;;;19.62;67.35;100310.44;8318242;28;20092;-58
2023/06/13 04:53:45;;;;;;;12.90;5.38;;;;;;;19.84;66.38;100314.75;8302783;28;20056;-60
2023/06/13 04:57:45;;;;;;;8.65;4.93;;;;;;;20.15;64.70;100320.59;8308256;28;20041;-58
2023/06/13 05:01:47;;;;;;;15.20;5.38;;;;;;;20.27;64.85;100319.78;8324464;28;20413;-58
2023/06/13 05:05:48;;;;;;;10.20;5.20;;;;;;;20.42;64.30;100322.34;8308384;28;20049;-58
2023/06/13 05:09:48;;;;;;;9.52;5.15;;;;;;;20.73;63.86;100325.34;8295513;28;20042;-64
2023/06/13 05:13:49;;;;;;;12.45;5.03;;;;;;;20.84;63.26;100321.97;8299559;28;20087;-64
2023/06/13 05:17:52;;;;;;;9.45;4.70;;;;;;;20.98;62.85;100321.78;8301995;28;20120;-64
2023/06/13 05:21:52;;;;;;;6.82;4.90;;;;;;;21.11;61.76;100323.69;8312955;28;20538;-64
2023/06/13 05:25:53;;;;;;;7.83;4.93;;;;;;;21.39;61.44;100321.50;8307627;28;20401;-64
2023/06/13 05:29:54;;;;;;;8.43;4.68;;;;;;;21.81;59.33;100320.16;8305027;28;20287;-58
2023/06/13 05:33:55;;;;;;;8.52;5.05;;;;;;;21.97;58.73;100331.50;8301765;28;20045;-59
2023/06/13 05:37:55;;;;;;;7.88;5.47;;;;;;;22.02;58.58;100328.94;8303708;28;20041;-58
2023/06/13 05:41:55;;;;;;;7.05;4.72;;;;;;;22.14;58.03;100332.69;8301166;28;20507;-58
2023/06/13 05:45:56;;;;;;;7.73;5.40;;;;;;;22.15;58.06;100339.91;8301893;28;20072;-59
2023/06/13 05:49:57;;;;;;;10.10;5.50;;;;;;;22.34;59.02;100341.69;8305656;28;20283;-58
2023/06/13 05:53:58;;;;;;;6.80;4.25;;;;;;;22.39;57.95;100341.88;8304814;28;20045;-59
2023/06/13 05:57:58;;;;;;;7.57;4.60;;;;;;;22.53;58.27;100337.16;8312855;28;20472;-58
2023/06/13 06:01:59;;;;;;;8.25;4.55;;;;;;;22.76;57.68;100349.31;8311587;28;20053;-58
2023/06/13 06:05:59;;;;;;;13.18;4.78;;;;;;;22.83;57.67;100347.34;8309865;28;20409;-58
2023/06/13 06:10:00;;;;;;;9.63;4.40;;;;;;;23.06;57.79;100347.53;8334827;28;20041;-58
2023/06/13 06:14:01;;;;;;;9.27;4.80;;;;;;;23.29;56.70;100344.19;8312823;28;20076;-58
2023/06/13 06:18:01;;;;;;;6.07;4.22;;;;;;;23.33;55.22;100350.97;8309840;28;20080;-59
2023/06/13 06:22:02;;;;;;;7.07;4.25;;;;;;;23.63;55.47;100351.91;8312555;28;20041;-66
2023/06/13 06:26:02;;;;;;;7.20;4.45;;;;;;;23.62;53.67;100341.09;8310796;28;20041;-66
2023/06/13 06:30:04;;;;;;;9.18;4.53;;;;;;;23.68;53.72;100345.69;8312180;28;20419;-66
2023/06/13 06:34:05;;;;;;;10.25;4.88;;;;;;;23.74;53.27;100344.78;8312356;28;20069;-66
2023/06/13 06:38:05;;;;;;;9.35;4.10;;;;;;;23.93;53.72;100346.44;8310433;28;20038;-58
2023/06/13 06:42:06;;;;;;;12.23;4.30;;;;;;;23.96;52.60;100344.13;8309374;28;20041;-57
2023/06/13 06:46:16;;;;;;;8.43;4.43;;;;;;;24.02;53.17;100340.44;8309733;28;20033;-59
2023/06/13 06:50:16;;;;;;;9.20;4.20;;;;;;;24.12;52.50;100346.25;8311925;28;20124;-59
2023/06/13 06:54:17;;;;;;;9.15;4.47;;;;;;;24.27;52.38;100351.34;8311065;28;20037;-59
2023/06/13 06:58:17;;;;;;;9.55;4.30;;;;;;;24.68;52.30;100345.91;8312460;28;20042;-59
2023/06/13 07:02:18;;;;;;;8.73;4.72;;;;;;;24.63;51.53;100348.50;8309829;28;20052;-58
2023/06/13 07:06:19;;;;;;;6.53;3.88;;;;;;;24.85;51.51;100352.44;8311122;28;20503;-58
2023/06/13 07:10:19;;;;;;;6.93;4.13;;;;;;;24.62;52.13;100346.81;8307735;28;20045;-58
2023/06/13 07:14:20;;;;;;;8.07;4.53;;;;;;;24.69;51.22;100353.13;8310392;28;20129;-58
2023/06/13 07:18:20;;;;;;;9.77;3.80;;;;;;;24.78;51.32;100341.50;8308815;28;20083;-59
2023/06/13 07:22:21;;;;;;;11.18;4.32;;;;;;;24.79;50.87;100351.47;8304313;28;20121;-58
2023/06/13 07:26:22;;;;;;;5.85;4.28;;;;;;;24.90;51.24;100347.03;8309292;28;20484;-58
2023/06/13 07:30:22;;;;;;;11.60;3.90;;;;;;;24.91;51.41;100340.41;8306929;28;20048;-59
2023/06/13 07:34:22;;;;;;;5.22;3.75;;;;;;;25.11;50.48;100352.00;8306909;28;20060;-58
2023/06/13 07:38:25;;;;;;;5.70;3.85;;;;;;;25.11;49.23;100356.69;8308550;28;20055;-58
2023/06/13 07:42:25;;;;;;;4.88;3.55;;;;;;;25.23;50.16;100349.25;8305565;28;20042;-58
2023/06/13 07:46:25;;;;;;;5.75;4.10;;;;;;;25.50;51.36;100350.50;8308242;28;20045;-58
2023/06/13 07:50:26;;;;;;;8.23;3.83;;;;;;;25.87;47.87;100347.22;8306180;28;20045;-58
2023/06/13 07:54:27;;;;;;;4.25;3.58;;;;;;;25.68;49.27;100342.88;8304380;28;20068;-58
2023/06/13 07:58:27;;;;;;;5.05;3.95;;;;;;;25.90;49.52;100346.72;8308928;28;20467;-58
2023/06/13 08:02:29;;;;;;;5.75;3.40;;;;;;;25.98;48.51;100357.44;8307837;28;20103;-59
2023/06/13 08:06:30;;;;;;;7.40;3.80;;;;;;;26.11;47.21;100362.72;8309348;28;20455;-58
2023/06/13 08:10:31;;;;;;;5.05;3.17;;;;;;;26.22;46.61;100360.97;8306053;28;20432;-58
2023/06/13 08:14:31;;;;;;;4.82;2.72;;;;;;;26.07;46.21;100352.38;8307790;28;20518;-59
2023/06/13 08:18:32;;;;;;;4.25;3.20;;;;;;;26.18;46.16;100357.88;8306787;28;20487;-58
2023/06/13 08:22:33;;;;;;;6.10;3.45;;;;;;;26.07;45.97;100352.38;8307439;28;20088;-58
2023/06/13 08:26:33;;;;;;;6.10;3.30;;;;;;;26.36;46.61;100352.16;8308244;28;20045;-59
2023/06/13 08:30:34;;;;;;;7.05;3.55;;;;;;;26.65;47.37;100351.06;8308323;28;20033;-59
2023/06/13 08:34:35;;;;;;;5.53;3.47;;;;;;;26.64;45.50;100360.50;8303697;28;20084;-65
2023/06/13 08:38:35;;;;;;;3.78;3.38;;;;;;;26.57;44.98;100362.56;8292977;28;20045;-63
2023/06/13 08:42:36;;;;;;;5.68;3.58;;;;;;;26.59;45.62;100360.34;8272654;28;20490;-64
2023/06/13 08:46:37;;;;;;;5.90;3.55;;;;;;;26.77;45.59;100353.78;8274426;28;20045;-64
2023/06/13 08:50:37;;;;;;;6.88;3.70;;;;;;;26.75;45.61;100345.69;8273995;28;20070;-64
2023/06/13 08:54:41;;;;;;;6.35;4.00;;;;;;;26.86;46.54;100354.22;8272790;28;20326;-63
2023/06/13 08:58:45;;;;;;;6.20;3.15;;;;;;;26.84;44.57;100346.97;8272786;28;20505;-65
2023/06/13 09:02:46;;;;;;;6.07;3.75;;;;;;;26.81;45.41;100354.97;8297637;28;20049;-63
2023/06/13 09:06:48;;;;;;;8.05;3.13;;;;;;;26.90;45.63;100352.63;8306223;28;20042;-63
2023/06/13 09:10:50;;;;;;;4.65;3.50;;;;;;;27.00;44.39;100342.53;8306321;28;20034;-59
2023/06/13 09:14:52;;;;;;;6.10;3.83;;;;;;;26.93;45.46;100355.75;8307559;28;20041;-59
2023/06/13 09:18:53;;;;;;;6.03;3.47;;;;;;;27.23;44.36;100358.19;8306063;28;20046;-59
2023/06/13 09:22:55;;;;;;;4.57;3.85;;;;;;;27.24;45.22;100354.31;8302004;28;20041;-58
2023/06/13 09:26:57;;;;;;;10.25;3.88;;;;;;;27.32;44.18;100351.16;8308659;28;20056;-64
2023/06/13 09:30:57;;;;;;;4.18;3.22;;;;;;;27.60;44.97;100337.16;8306801;28;20400;-64
2023/06/13 09:34:58;;;;;;;7.20;4.00;;;;;;;27.39;44.54;100335.16;8306568;28;20144;-64
2023/06/13 09:38:59;;;;;;;5.88;3.80;;;;;;;27.72;44.00;100321.22;8305333;28;20044;-63
2023/06/13 09:43:02;;;;;;;7.72;3.95;;;;;;;27.71;45.21;100323.13;8306842;28;20038;-64
2023/06/13 09:47:03;;;;;;;11.25;4.32;;;;;;;27.65;44.59;100326.09;8306400;28;20041;-66
2023/06/13 09:51:09;;;;;;;6.13;3.85;;;;;;;27.87;44.14;100327.81;8303844;28;20485;-66
2023/06/13 09:55:11;;;;;;;8.70;4.00;;;;;;;27.87;44.09;100307.56;8305909;28;20033;-66
2023/06/13 09:59:17;;;;;;;13.68;4.13;;;;;;;28.21;43.76;100317.44;8305400;28;20045;-66
2023/06/13 10:03:18;;;;;;;4.97;4.10;;;;;;;29.51;42.87;100315.03;8277568;28;20037;-65
2023/06/13 10:07:18;;;;;;;13.68;3.72;;;;;;;30.63;41.21;100315.28;8253798;28;20048;-66
2023/06/13 10:11:25;;;;;;;4.85;3.60;;;;;;;31.36;40.43;100321.25;8270461;28;20564;-66
2023/06/13 10:15:32;;;;;;;7.47;3.40;;;;;;;32.45;38.37;100298.81;8271800;28;20034;-66
2023/06/13 10:19:38;;;;;;;6.88;3.50;;;;;;;32.92;37.26;100310.28;8293309;28;20165;-66
2023/06/13 10:23:44;;;;;;;5.82;4.05;;;;;;;32.65;37.93;100321.06;8270586;28;20034;-66
2023/06/13 10:27:50;;;;;;;5.65;3.08;;;;;;;33.21;38.11;100316.75;8262869;28;20493;-66
2023/06/13 10:32:30;;;;;;;7.13;3.65;;;;;;;33.58;37.54;100308.59;8306196;28;20423;-66
2023/06/13 10:36:56;;;;;;;6.70;3.80;;;;;;;32.88;37.87;100312.00;8303502;28;20473;-67
2023/06/13 10:41:29;;;;;;;5.53;3.20;;;;;;;33.49;38.72;100290.72;8303602;28;20095;-59
2023/06/13 10:45:30;;;;;;;5.60;3.40;;;;;;;33.72;37.29;100300.25;8314252;28;20099;-58
2023/06/13 10:49:36;;;;;;;5.53;3.72;;;;;;;33.68;37.04;100302.84;8310333;28;20431;-58
2023/06/13 10:53:37;;;;;;;9.23;3.83;;;;;;;34.10;35.85;100299.28;8309952;28;20053;-59
2023/06/13 10:57:56;;;;;;;4.72;3.38;;;;;;;34.50;34.97;100283.88;8310896;28;20049;-60
2023/06/13 11:01:56;;;;;;;6.70;3.30;;;;;;;34.41;35.43;100282.88;8285748;28;20044;-64
2023/06/13 11:06:05;;;;;;;3.60;3.30;;;;;;;33.90;35.89;100272.31;8278179;28;20061;-64
2023/06/13 11:10:13;;;;;;;3.97;3.33;;;;;;;34.58;36.48;100269.16;8276671;28;20362;-64
2023/06/13 11:14:13;;;;;;;5.72;3.85;;;;;;;34.79;35.48;100264.88;8277711;28;20038;-64
2023/06/13 11:18:23;;;;;;;3.95;3.30;;;;;;;34.22;34.41;100259.53;8277750;28;20041;-64
2023/06/13 11:22:23;;;;;;;6.47;3.90;;;;;;;34.38;35.55;100269.44;8303498;28;20091;-64
2023/06/13 11:26:25;;;;;;;5.07;3.13;;;;;;;34.77;34.83;100256.75;8309363;28;20129;-64
2023/06/13 11:30:25;;;;;;;6.32;3.67;;;;;;;34.52;34.68;100259.13;8311389;28;20087;-64
2023/06/13 11:34:32;;;;;;;3.90;3.50;;;;;;;35.21;34.01;100245.03;8307877;28;20038;-64
2023/06/13 11:38:40;;;;;;;5.75;3.90;;;;;;;35.25;35.08;100240.47;8310596;28;20041;-65
2023/06/13 11:42:41;;;;;;;5.97;4.13;;;;;;;34.44;33.23;100241.00;8308016;28;20111;-65
2023/06/13 11:46:43;;;;;;;5.20;3.40;;;;;;;34.88;33.39;100252.66;8309851;28;20049;-65
2023/06/13 11:50:44;;;;;;;4.10;3.20;;;;;;;34.81;33.91;100262.59;8309103;28;20566;-65
2023/06/13 11:54:47;;;;;;;5.15;3.30;;;;;;;34.57;33.75;100256.22;8306847;28;20053;-65
2023/06/13 11:58:48;;;;;;;11.83;3.80;;;;;;;34.05;33.63;100250.81;8296322;28;20045;-64
2023/06/13 12:02:48;;;;;;;5.25;3.90;;;;;;;33.66;33.85;100246.19;8310731;28;20048;-64
2023/06/13 12:06:52;;;;;;;5.50;3.80;;;;;;;33.68;33.96;100249.56;8306927;28;20454;-64
2023/06/13 12:10:53;;;;;;;8.73;3.85;;;;;;;32.48;34.43;100259.03;8308763;28;20037;-64
2023/06/13 12:14:54;;;;;;;8.82;4.22;;;;;;;30.41;37.77;100241.00;8308162;28;20566;-65
2023/06/13 12:18:55;;;;;;;4.22;3.83;;;;;;;29.26;39.30;100228.53;8307120;28;20568;-64
2023/06/13 12:22:57;;;;;;;6.95;4.07;;;;;;;28.98;40.03;100238.06;8306551;28;20042;-65
2023/06/13 12:26:57;;;;;;;5.53;3.38;;;;;;;28.77;41.13;100236.22;8304853;28;20052;-63
2023/06/13 12:31:05;;;;;;;6.65;4.18;;;;;;;28.40;39.38;100216.69;8308833;28;20499;-66
2023/06/13 12:35:05;;;;;;;6.82;3.47;;;;;;;28.70;40.78;100226.41;8307123;28;20049;-66
2023/06/13 12:39:09;;;;;;;6.00;3.90;;;;;;;28.85;41.00;100212.63;8303656;28;20037;-66
2023/06/13 12:43:10;;;;;;;7.50;4.10;;;;;;;28.79;40.77;100220.09;8305066;28;20038;-66
2023/06/13 12:47:11;;;;;;;5.15;3.80;;;;;;;28.50;40.50;100213.16;8307470;28;20128;-59
2023/06/13 12:51:26;;;;;;;7.30;4.53;;;;;;;28.63;39.98;100216.34;8303605;28;20034;-59
2023/06/13 12:55:28;;;;;;;7.40;4.32;;;;;;;28.98;39.71;100190.72;8304284;28;20562;-56
2023/06/13 12:59:51;;;;;;;4.55;3.42;;;;;;;29.00;39.08;100196.84;8306665;28;20052;-57
2023/06/13 13:03:51;;;;;;;11.93;4.13;;;;;;;28.98;39.40;100190.72;8306823;28;20481;-57
2023/06/13 13:07:54;;;;;;;4.85;3.85;;;;;;;29.21;40.50;100178.38;8303865;28;20034;-57
2023/06/13 13:11:55;;;;;;;5.93;3.75;;;;;;;29.00;40.52;100188.50;8303660;28;20117;-59
2023/06/13 13:15:56;;;;;;;4.20;3.80;;;;;;;28.51;39.77;100184.22;8307223;28;20132;-57
2023/06/13 13:19:56;;;;;;;6.30;3.78;;;;;;;28.62;39.83;100186.00;8303698;28;20500;-57
2023/06/13 13:23:57;;;;;;;4.00;3.60;;;;;;;28.51;39.21;100179.50;8302221;28;20133;-57
2023/06/13 13:27:58;;;;;;;4.55;4.05;;;;;;;28.82;40.63;100175.03;8303986;28;20500;-58
2023/06/13 13:31:58;;;;;;;10.85;4.32;;;;;;;29.07;38.77;100175.22;8306207;28;20053;-58
2023/06/13 13:35:59;;;;;;;6.15;3.75;;;;;;;29.30;37.91;100174.78;8303301;28;20046;-59
2023/06/13 13:40:00;;;;;;;8.18;4.10;;;;;;;28.92;38.17;100177.88;8305696;28;20100;-58
2023/06/13 13:44:03;;;;;;;5.53;3.97;;;;;;;28.83;40.58;100160.00;8305573;28;20478;-64
2023/06/13 13:48:05;;;;;;;5.60;3.78;;;;;;;29.01;39.14;100156.78;8302885;28;20042;-65
2023/06/13 13:52:06;;;;;;;5.32;4.13;;;;;;;28.81;39.76;100165.00;8303040;28;20103;-64
2023/06/13 13:56:06;;;;;;;9.65;3.60;;;;;;;28.67;40.53;100161.81;8306090;28;20041;-65
2023/06/13 14:00:07;;;;;;;6.03;3.65;;;;;;;28.62;39.84;100152.63;8302680;28;20041;-64
2023/06/13 14:04:08;;;;;;;4.70;3.80;;;;;;;28.63;39.56;100140.38;8304913;28;20038;-64
2023/06/13 14:08:10;;;;;;;5.57;3.60;;;;;;;28.67;39.29;100140.69;8305201;28;20495;-59
2023/06/13 14:12:10;;;;;;;7.55;3.72;;;;;;;28.59;39.55;100139.22;8304273;28;20038;-59
2023/06/13 14:16:11;;;;;;;4.05;3.67;;;;;;;28.61;39.36;100139.81;8309632;28;20045;-58
2023/06/13 14:20:13;;;;;;;9.25;3.95;;;;;;;29.14;41.24;100134.03;8311856;28;20045;-58
2023/06/13 14:24:13;;;;;;;6.50;3.45;;;;;;;28.93;39.57;100137.78;8310992;28;20118;-62
2023/06/13 14:28:14;;;;;;;6.05;4.30;;;;;;;28.91;40.39;100126.09;8309614;28;20038;-59
2023/06/13 14:32:14;;;;;;;4.57;3.83;;;;;;;28.76;41.59;100117.66;8282304;28;20566;-59
2023/06/13 14:36:15;;;;;;;4.30;3.50;;;;;;;28.88;39.14;100123.84;8274943;28;20030;-59
2023/06/13 14:40:15;;;;;;;7.95;3.88;;;;;;;28.77;39.63;100138.81;8300484;28;20037;-61
2023/06/13 14:44:16;;;;;;;4.85;3.53;;;;;;;28.75;38.58;100118.75;8309769;28;20038;-59
2023/06/13 14:48:18;;;;;;;6.20;3.72;;;;;;;28.92;39.97;100127.78;8307682;28;20046;-64
2023/06/13 14:52:18;;;;;;;5.03;4.18;;;;;;;28.91;38.04;100120.53;8305195;28;20480;-65
2023/06/13 14:56:19;;;;;;;10.52;4.85;;;;;;;28.82;39.94;100124.09;8309675;28;20046;-65
2023/06/13 15:00:20;;;;;;;4.38;3.97;;;;;;;28.70;40.05;100121.53;8308481;28;20503;-65
2023/06/13 15:04:20;;;;;;;4.82;3.50;;;;;;;28.48;39.06;100104.09;8308470;28;20527;-65
2023/06/13 15:08:20;;;;;;;5.32;4.00;;;;;;;28.80;40.22;100104.88;8308651;28;20076;-65
2023/06/13 15:12:21;;;;;;;5.68;4.43;;;;;;;29.05;40.67;100107.81;8306431;28;20085;-64
2023/06/13 15:16:21;;;;;;;6.97;3.80;;;;;;;28.95;39.42;100099.41;8309274;28;20052;-64
2023/06/13 15:20:22;;;;;;;7.68;3.92;;;;;;;28.79;38.42;100092.06;8308549;28;20037;-63
2023/06/13 15:24:22;;;;;;;5.63;3.73;;;;;;;28.76;38.49;100098.19;8305120;28;20046;-67
2023/06/13 15:28:23;;;;;;;7.60;4.30;;;;;;;28.79;40.08;100099.56;8307241;28;20289;-65
2023/06/13 15:32:24;;;;;;;4.38;3.85;;;;;;;28.57;39.39;100091.34;8314174;28;20052;-65
2023/06/13 15:36:24;;;;;;;5.32;3.60;;;;;;;28.72;40.12;100088.66;8312827;28;20312;-65
2023/06/13 15:40:26;;;;;;;5.72;4.20;;;;;;;28.84;38.15;100083.72;8305241;28;20185;-65
2023/06/13 15:44:28;;;;;;;6.38;3.95;;;;;;;29.07;38.05;100088.06;8305091;28;20408;-60
2023/06/13 15:48:29;;;;;;;5.78;3.90;;;;;;;29.06;39.92;100081.66;8304926;28;20041;-59
2023/06/13 15:52:30;;;;;;;5.85;3.85;;;;;;;29.04;38.82;100078.31;8303347;28;20598;-59
2023/06/13 15:56:30;;;;;;;8.32;4.22;;;;;;;28.96;38.74;100086.28;8308165;28;20424;-59
2023/06/13 16:00:30;;;;;;;8.98;4.05;;;;;;;29.26;41.68;100081.75;8309023;28;20084;-57
2023/06/13 16:04:31;;;;;;;8.83;4.03;;;;;;;29.00;38.10;100079.09;8301199;28;20579;-58
2023/06/13 16:08:32;;;;;;;8.68;3.80;;;;;;;29.12;39.55;100075.00;8282990;28;20371;-58
2023/06/13 16:12:33;;;;;;;6.13;4.05;;;;;;;28.83;37.67;100067.31;8313617;28;20053;-58
2023/06/13 16:16:33;;;;;;;7.22;3.72;;;;;;;28.74;38.71;100060.56;8306274;28;20060;-57
2023/06/13 16:20:34;;;;;;;5.55;3.90;;;;;;;28.57;38.10;100069.09;8300831;28;20034;-58
2023/06/13 16:24:34;;;;;;;4.43;4.00;;;;;;;28.67;38.87;100067.22;8303509;28;20247;-58
2023/06/13 16:28:35;;;;;;;5.97;4.28;;;;;;;28.69;38.52;100069.72;8304299;28;20495;-58
2023/06/13 16:32:35;;;;;;;5.85;4.35;;;;;;;28.75;39.40;100062.25;8302348;28;20076;-58
2023/06/13 16:36:37;;;;;;;11.07;4.28;;;;;;;28.73;39.68;100064.47;8301644;28;20041;-59
2023/06/13 16:40:37;;;;;;;8.15;3.80;;;;;;;28.73;40.01;100068.09;8307235;28;20037;-59
2023/06/13 16:44:38;;;;;;;6.60;4.10;;;;;;;28.79;39.46;100055.88;8304015;28;20033;-59
2023/06/13 16:48:38;;;;;;;5.70;3.83;;;;;;;28.69;39.34;100066.13;8300802;28;20283;-60
2023/06/13 16:52:39;;;;;;;6.85;3.83;;;;;;;28.50;40.61;100049.88;8310463;28;20038;-60
2023/06/13 16:56:40;;;;;;;6.90;3.97;;;;;;;28.50;39.69;100057.38;8301788;28;20036;-60
2023/06/13 17:00:40;;;;;;;4.28;3.83;;;;;;;28.47;39.58;100060.69;8300961;28;20053;-60
2023/06/13 17:04:41;;;;;;;6.82;4.20;;;;;;;28.64;38.54;100055.81;8303696;28;20053;-60
2023/06/13 17:08:41;;;;;;;7.72;4.20;;;;;;;28.83;37.65;100059.81;8293172;28;20053;-60
2023/06/13 17:12:41;;;;;;;5.47;4.25;;;;;;;28.68;38.96;100062.50;8303363;28;20037;-60
2023/06/13 17:16:42;;;;;;;5.43;3.70;;;;;;;28.56;38.21;100059.09;8302785;28;20049;-59
2023/06/13 17:20:47;;;;;;;6.18;3.97;;;;;;;28.48;38.80;100052.06;8305864;28;20429;-59
2023/06/13 17:24:47;;;;;;;4.95;3.70;;;;;;;28.58;39.28;100059.66;8301914;28;20042;-60
2023/06/13 17:28:48;;;;;;;4.77;3.57;;;;;;;28.46;38.42;100054.31;8303487;28;20053;-59
2023/06/13 17:32:49;;;;;;;5.03;4.05;;;;;;;28.56;39.54;100061.88;8303218;28;20291;-60
2023/06/13 17:36:50;;;;;;;5.90;4.20;;;;;;;28.40;40.70;100060.06;8305046;28;20050;-59
2023/06/13 17:40:51;;;;;;;4.85;3.90;;;;;;;28.58;40.05;100068.00;8300677;28;20048;-59
2023/06/13 17:44:51;;;;;;;6.07;4.05;;;;;;;28.43;41.78;100059.53;8303270;28;20041;-60
2023/06/13 17:48:52;;;;;;;6.72;4.20;;;;;;;28.35;42.64;100060.88;8303818;28;20046;-60
2023/06/13 17:52:52;;;;;;;6.93;4.32;;;;;;;28.29;43.25;100067.50;8300099;28;20030;-60
2023/06/13 17:56:53;;;;;;;8.48;4.00;;;;;;;28.12;43.08;100068.75;8301191;28;20042;-60
2023/06/13 18:00:55;;;;;;;5.60;3.97;;;;;;;28.22;43.44;100068.81;8304116;28;20145;-66
2023/06/13 18:04:55;;;;;;;6.85;3.78;;;;;;;28.13;42.78;100067.63;8305267;28;20037;-66
2023/06/13 18:08:55;;;;;;;6.63;4.28;;;;;;;28.07;43.29;100077.03;8302027;28;20500;-65
2023/06/13 18:12:56;;;;;;;6.80;3.55;;;;;;;28.10;43.12;100076.50;8302010;28;20128;-66
2023/06/13 18:16:56;;;;;;;7.40;4.00;;;;;;;27.94;43.95;100074.69;8301970;28;20045;-67
2023/06/13 18:20:57;;;;;;;9.20;4.20;;;;;;;27.95;43.65;100079.16;8299852;28;20042;-66
2023/06/13 18:24:57;;;;;;;7.57;3.55;;;;;;;27.85;43.01;100079.88;8299041;28;20041;-66
2023/06/13 18:28:58;;;;;;;8.23;3.95;;;;;;;27.84;43.95;100080.16;8300995;28;20052;-66
2023/06/13 18:32:58;;;;;;;5.00;3.83;;;;;;;27.66;43.06;100075.78;8302570;28;20134;-66
2023/06/13 18:36:59;;;;;;;4.43;4.03;;;;;;;27.49;42.91;100086.16;8299874;28;20042;-66
2023/06/13 18:41:00;;;;;;;10.82;4.18;;;;;;;27.35;44.16;100093.22;8299556;28;20876;-66
2023/06/13 18:45:01;;;;;;;5.78;3.83;;;;;;;27.28;43.70;100091.72;8301074;28;20042;-66